createdAt,value
2023-05-22T00:00:01.360Z,75.40
2023-05-22T00:05:07.716Z,76.70
2023-05-22T00:10:11.660Z,76.20
2023-05-22T00:15:15.085Z,77.40
2023-05-22T00:20:19.907Z,77.40
2023-05-22T00:25:23.767Z,77.80
2023-05-22T00:30:27.287Z,78.00
2023-05-22T00:35:32.250Z,78.30
2023-05-22T00:40:35.659Z,78.30
2023-05-22T00:45:39.336Z,78.30
2023-05-22T00:50:44.300Z,78.50
2023-05-22T00:55:48.171Z,79.00
2023-05-22T01:00:52.354Z,78.70
2023-05-22T01:05:57.107Z,79.90
2023-05-22T01:11:05.402Z,80.10
2023-05-22T01:16:18.980Z,80.00
2023-05-22T01:21:30.175Z,80.30
2023-05-22T01:26:59.787Z,82.00
2023-05-22T01:32:06.493Z,81.80
2023-05-22T01:37:10.913Z,82.50
2023-05-22T01:42:15.268Z,83.10
2023-05-22T01:47:20.409Z,83.50
2023-05-22T01:52:30.145Z,83.80
2023-05-22T01:57:43.821Z,84.00
2023-05-22T02:02:56.433Z,84.10
2023-05-22T02:08:01.586Z,84.60
2023-05-22T02:13:05.557Z,85.10
2023-05-22T02:18:13.384Z,85.20
2023-05-22T02:23:16.973Z,86.40
2023-05-22T02:28:20.438Z,88.20
2023-05-22T02:33:27.025Z,88.80
2023-05-22T02:38:30.692Z,88.60
2023-05-22T02:43:34.688Z,88.70
2023-05-22T02:48:39.847Z,89.40
2023-05-22T02:53:43.856Z,89.50
2023-05-22T02:58:47.235Z,89.40
2023-05-22T03:03:52.058Z,90.00
2023-05-22T03:08:56.482Z,90.00
2023-05-22T03:14:00.725Z,90.30
2023-05-22T03:19:10.420Z,90.00
2023-05-22T03:24:14.546Z,90.30
2023-05-22T03:29:18.171Z,90.20
2023-05-22T03:34:23.132Z,90.20
2023-05-22T03:39:27.305Z,90.50
2023-05-22T03:44:50.282Z,90.00
2023-05-22T03:49:56.822Z,90.10
2023-05-22T03:55:00.443Z,89.90
2023-05-22T04:00:09.898Z,89.70
2023-05-22T04:05:17.949Z,90.00
2023-05-22T04:10:23.478Z,90.00
2023-05-22T04:15:27.181Z,89.50
2023-05-22T04:20:32.321Z,88.80
2023-05-22T04:25:36.501Z,88.60
2023-05-22T04:30:40.507Z,87.90
2023-05-22T04:35:45.623Z,87.70
2023-05-22T04:40:50.268Z,87.90
2023-05-22T04:45:54.914Z,87.10
2023-05-22T04:51:02.925Z,87.00
2023-05-22T04:56:07.592Z,83.70
2023-05-22T05:01:11.759Z,82.00
2023-05-22T05:06:17.361Z,81.10
2023-05-22T05:11:21.694Z,80.20
2023-05-22T05:16:26.357Z,80.40
2023-05-22T05:21:31.490Z,80.80
2023-05-22T05:26:37.311Z,81.20
2023-05-22T05:31:41.754Z,80.30
2023-05-22T05:36:52.533Z,76.20
2023-05-22T05:41:58.509Z,73.70
2023-05-22T05:47:02.503Z,71.60
2023-05-22T05:52:08.433Z,70.50
2023-05-22T05:57:14.660Z,68.70
2023-05-22T06:02:19.357Z,70.50
2023-05-22T06:07:25.369Z,71.60
2023-05-22T06:12:32.079Z,72.30
2023-05-22T06:17:35.782Z,75.90
2023-05-22T06:22:41.108Z,75.70
2023-05-22T06:27:45.716Z,76.10
2023-05-22T06:32:49.919Z,74.40
2023-05-22T06:37:57.355Z,71.20
2023-05-22T06:43:02.484Z,73.20
2023-05-22T06:48:14.706Z,73.00
2023-05-22T06:53:34.222Z,69.90
2023-05-22T06:58:38.889Z,71.10
2023-05-22T07:03:43.269Z,69.80
2023-05-22T07:09:11.361Z,69.00
2023-05-22T07:14:15.368Z,71.60
2023-05-22T07:19:20.084Z,72.50
2023-05-22T07:24:25.035Z,72.20
2023-05-22T07:29:29.002Z,67.90
2023-05-22T07:34:34.638Z,66.20
2023-05-22T07:39:42.709Z,63.80
2023-05-22T07:44:46.990Z,62.20
2023-05-22T07:49:51.739Z,61.80
2023-05-22T07:54:57.553Z,65.40
2023-05-22T08:00:09.641Z,64.30
2023-05-22T08:05:16.323Z,61.80
2023-05-22T08:10:21.136Z,62.30
2023-05-22T08:15:24.571Z,61.30
2023-05-22T08:20:28.171Z,59.90
2023-05-22T08:25:33.016Z,60.60
2023-05-22T08:30:37.886Z,62.00
2023-05-22T08:35:41.511Z,59.80
2023-05-22T08:40:49.910Z,57.70
2023-05-22T08:45:57.914Z,59.30
2023-05-22T08:51:04.061Z,60.10
2023-05-22T08:56:09.377Z,61.50
2023-05-22T09:01:14.464Z,61.30
2023-05-22T09:06:18.655Z,58.70
2023-05-22T09:11:23.441Z,57.70
2023-05-22T09:16:27.192Z,58.40
2023-05-22T09:21:31.381Z,59.20
2023-05-22T09:26:39.507Z,59.00
2023-05-22T09:31:44.647Z,60.00
2023-05-22T09:36:51.638Z,61.90
2023-05-22T09:42:01.594Z,60.30
2023-05-22T09:47:07.393Z,58.30
2023-05-22T09:52:12.726Z,57.60
2023-05-22T09:57:19.598Z,57.70
2023-05-22T10:02:24.240Z,55.90
2023-05-22T10:07:34.435Z,57.60
2023-05-22T10:12:43.405Z,59.70
2023-05-22T10:17:48.206Z,58.70
2023-05-22T10:22:53.404Z,57.80
2023-05-22T10:27:59.821Z,55.50
2023-05-22T10:33:09.769Z,57.50
2023-05-22T10:38:39.307Z,58.10
2023-05-22T10:43:48.316Z,56.40
2023-05-22T10:48:55.391Z,56.20
2023-05-22T10:54:02.258Z,54.70
2023-05-22T10:59:08.455Z,55.80
2023-05-22T11:04:12.493Z,55.40
2023-05-22T11:09:19.725Z,55.00
2023-05-22T11:14:26.184Z,55.10
2023-05-22T11:19:29.712Z,54.10
2023-05-22T11:24:34.386Z,53.90
2023-05-22T11:29:44.546Z,53.10
2023-05-22T11:34:50.482Z,53.80
2023-05-22T11:39:57.164Z,51.80
2023-05-22T11:45:02.382Z,50.90
2023-05-22T11:50:09.918Z,50.30
2023-05-22T11:55:13.398Z,51.00
2023-05-22T12:00:19.909Z,49.30
2023-05-22T12:05:23.549Z,50.80
2023-05-22T12:10:27.036Z,49.00
2023-05-22T12:15:31.957Z,48.10
2023-05-22T12:20:35.756Z,49.30
2023-05-22T12:25:39.346Z,47.50
2023-05-22T12:30:44.300Z,46.60
2023-05-22T12:35:52.157Z,48.20
2023-05-22T12:40:56.612Z,47.90
2023-05-22T12:46:02.835Z,46.40
2023-05-22T12:51:06.747Z,47.80
2023-05-22T12:56:10.322Z,48.10
2023-05-22T13:01:16.379Z,46.40
2023-05-22T13:06:20.759Z,46.20
2023-05-22T13:11:26.606Z,47.60
2023-05-22T13:16:31.923Z,51.10
2023-05-22T13:21:36.444Z,46.00
2023-05-22T13:26:39.912Z,44.60
2023-05-22T13:31:45.146Z,44.70
2023-05-22T13:36:48.668Z,44.70
2023-05-22T13:41:53.246Z,45.70
2023-05-22T13:46:58.240Z,44.40
2023-05-22T13:52:01.772Z,43.90
2023-05-22T13:57:06.504Z,45.30
2023-05-22T14:02:11.466Z,43.70
2023-05-22T14:07:15.035Z,44.50
2023-05-22T14:12:19.027Z,44.30
2023-05-22T14:17:24.318Z,42.70
2023-05-22T14:22:28.054Z,42.60
2023-05-22T14:27:31.534Z,43.90
2023-05-22T14:32:36.305Z,45.80
2023-05-22T14:37:39.818Z,44.40
2023-05-22T14:42:43.365Z,44.20
2023-05-22T14:47:48.235Z,43.60
2023-05-22T14:52:51.860Z,43.10
2023-05-22T14:57:55.688Z,43.10
2023-05-22T15:03:02.966Z,42.20
2023-05-22T15:08:06.882Z,42.10
2023-05-22T15:13:11.761Z,41.90
2023-05-22T15:18:17.105Z,42.20
2023-05-22T15:23:25.642Z,42.00
2023-05-22T15:28:29.161Z,41.20
2023-05-22T15:33:34.389Z,44.20
2023-05-22T15:38:38.303Z,42.20
2023-05-22T15:43:41.815Z,41.20
2023-05-22T15:48:47.384Z,42.00
2023-05-22T15:53:51.625Z,43.10
2023-05-22T15:58:55.223Z,42.20
2023-05-22T16:04:01.073Z,41.60
2023-05-22T16:09:04.609Z,41.60
2023-05-22T16:14:08.305Z,42.50
2023-05-22T16:19:13.617Z,44.30
2023-05-22T16:24:17.338Z,42.90
2023-05-22T16:29:21.513Z,44.00
2023-05-22T16:34:26.316Z,45.60
2023-05-22T16:39:29.847Z,44.70
2023-05-22T16:44:33.355Z,43.20
2023-05-22T16:49:39.199Z,43.80
2023-05-22T16:54:42.656Z,43.00
2023-05-22T16:59:46.290Z,44.40
2023-05-22T17:04:51.309Z,45.10
2023-05-22T17:09:54.854Z,44.70
2023-05-22T17:14:58.537Z,44.90
2023-05-22T17:20:06.822Z,44.80
2023-05-22T17:25:10.670Z,46.30
2023-05-22T17:30:14.279Z,46.80
2023-05-22T17:35:19.674Z,47.70
2023-05-22T17:40:29.548Z,48.00
2023-05-22T17:45:49.533Z,48.20
2023-05-22T17:50:54.787Z,48.10
2023-05-22T17:55:58.432Z,48.50
2023-05-22T18:01:01.949Z,49.50
2023-05-22T18:06:07.371Z,49.70
2023-05-22T18:11:11.004Z,50.10
2023-05-22T18:16:18.557Z,50.70
2023-05-22T18:21:23.754Z,52.30
2023-05-22T18:26:27.524Z,51.70
2023-05-22T18:31:31.301Z,52.40
2023-05-22T18:36:36.097Z,52.90
2023-05-22T18:41:39.497Z,53.80
2023-05-22T18:46:42.950Z,55.20
2023-05-22T18:51:47.775Z,56.00
2023-05-22T18:56:51.285Z,57.50
2023-05-22T19:01:54.726Z,59.00
2023-05-22T19:07:00.338Z,59.40
2023-05-22T19:12:04.116Z,61.30
2023-05-22T19:17:08.202Z,60.80
2023-05-22T19:22:13.190Z,62.90
2023-05-22T19:27:17.478Z,63.70
2023-05-22T19:32:21.157Z,64.00
2023-05-22T19:37:26.255Z,67.60
2023-05-22T19:42:29.562Z,65.80
2023-05-22T19:47:33.073Z,68.10
2023-05-22T19:52:37.916Z,69.50
2023-05-22T19:57:44.467Z,72.50
2023-05-22T20:02:48.310Z,73.00
2023-05-22T20:07:53.127Z,75.50
2023-05-22T20:12:56.668Z,77.70
2023-05-22T20:18:02.478Z,76.80
2023-05-22T20:23:07.785Z,78.60
2023-05-22T20:28:11.228Z,78.00
2023-05-22T20:33:15.235Z,79.90
2023-05-22T20:38:20.478Z,80.20
2023-05-22T20:43:26.224Z,83.60
2023-05-22T20:48:29.742Z,81.90
2023-05-22T20:53:34.586Z,81.50
2023-05-22T20:58:39.187Z,84.30
2023-05-22T21:03:43.114Z,84.10
2023-05-22T21:08:47.998Z,84.10
2023-05-22T21:13:52.141Z,84.10
2023-05-22T21:18:56.432Z,85.80
2023-05-22T21:24:01.289Z,89.80
2023-05-22T21:29:05.049Z,88.90
2023-05-22T21:34:09.780Z,89.20
2023-05-22T21:39:14.775Z,89.60
2023-05-22T21:44:18.526Z,88.30
2023-05-22T21:49:22.776Z,87.50
2023-05-22T21:54:28.630Z,88.10
2023-05-22T21:59:32.139Z,89.90
2023-05-22T22:04:35.682Z,89.90
2023-05-22T22:09:40.823Z,90.60
2023-05-22T22:14:44.234Z,89.90
2023-05-22T22:19:47.650Z,89.70
2023-05-22T22:24:52.952Z,91.60
2023-05-22T22:29:56.447Z,91.20
2023-05-22T22:35:00.029Z,92.90
2023-05-22T22:40:05.636Z,94.40
2023-05-22T22:45:10.598Z,92.90
2023-05-22T22:50:14.362Z,92.90
2023-05-22T22:55:19.556Z,96.00
2023-05-22T23:00:23.690Z,96.00
2023-05-22T23:05:27.514Z,93.80
2023-05-22T23:10:32.240Z,93.70
2023-05-22T23:15:35.792Z,93.40
2023-05-22T23:20:39.407Z,93.20
2023-05-22T23:25:44.164Z,94.10
2023-05-22T23:30:47.513Z,93.40
2023-05-22T23:35:51.044Z,92.20
2023-05-22T23:40:55.727Z,92.60
2023-05-22T23:45:59.162Z,92.20
2023-05-22T23:51:02.751Z,92.10
2023-05-22T23:56:09.972Z,91.60
